createdAt,value
2022-08-26T00:02:12.044Z,13.70
2022-08-26T00:04:43.216Z,13.20
2022-08-26T00:07:10.701Z,13.50
2022-08-26T00:09:40.071Z,14.60
2022-08-26T00:12:09.351Z,10.50
2022-08-26T00:14:42.981Z,12.80
2022-08-26T00:17:10.716Z,10.40
2022-08-26T00:19:38.285Z,10.30
2022-08-26T00:22:05.966Z,19.20
2022-08-26T00:24:33.278Z,12.60
2022-08-26T00:27:00.524Z,13.90
2022-08-26T00:29:28.168Z,15.20
2022-08-26T00:31:59.177Z,14.40
2022-08-26T00:34:26.313Z,10.40
2022-08-26T00:36:54.144Z,12.80
2022-08-26T00:39:22.731Z,20.00
2022-08-26T00:41:50.017Z,13.30
2022-08-26T00:44:19.019Z,17.70
2022-08-26T00:46:55.545Z,14.90
2022-08-26T00:49:43.943Z,13.90
2022-08-26T00:52:19.999Z,12.60
2022-08-26T00:55:00.411Z,12.70
2022-08-26T00:57:28.199Z,10.90
2022-08-26T00:59:58.980Z,14.00
2022-08-26T01:02:27.206Z,17.70
2022-08-26T01:05:00.477Z,17.50
2022-08-26T01:07:31.342Z,17.20
2022-08-26T01:10:06.532Z,9.50
2022-08-26T01:12:40.336Z,15.60
2022-08-26T01:15:13.174Z,10.60
2022-08-26T01:17:44.278Z,16.20
2022-08-26T01:21:07.662Z,11.40
2022-08-26T01:23:40.126Z,14.60
2022-08-26T01:26:19.954Z,14.80
2022-08-26T01:28:51.697Z,14.50
2022-08-26T01:31:24.270Z,11.60
2022-08-26T01:34:02.109Z,15.50
2022-08-26T01:36:32.819Z,13.90
2022-08-26T01:39:00.013Z,11.60
2022-08-26T01:41:29.088Z,13.20
2022-08-26T01:43:56.825Z,16.50
2022-08-26T01:46:26.817Z,12.60
2022-08-26T01:48:57.194Z,13.60
2022-08-26T01:51:25.717Z,11.40
2022-08-26T01:53:53.965Z,12.90
2022-08-26T01:56:23.277Z,11.90
2022-08-26T01:58:55.536Z,13.60
2022-08-26T02:01:29.230Z,15.40
2022-08-26T02:04:20.565Z,10.60
2022-08-26T02:09:18.662Z,12.80
2022-08-26T02:11:47.514Z,16.50
2022-08-26T02:14:32.323Z,15.70
2022-08-26T02:17:03.397Z,58.80
2022-08-26T02:19:38.966Z,78.40
2022-08-26T02:22:13.688Z,71.60
2022-08-26T02:24:56.043Z,58.70
2022-08-26T02:27:34.545Z,48.60
2022-08-26T02:30:18.000Z,26.70
2022-08-26T02:32:46.019Z,21.30
2022-08-26T02:35:20.325Z,12.70
2022-08-26T02:40:21.840Z,12.00
2022-08-26T02:42:49.877Z,11.50
2022-08-26T02:45:23.052Z,7.90
2022-08-26T02:47:51.655Z,11.10
2022-08-26T02:50:20.436Z,9.60
2022-08-26T02:52:48.093Z,14.40
2022-08-26T02:55:15.759Z,11.80
2022-08-26T02:57:43.426Z,11.90
2022-08-26T03:00:14.670Z,13.00
2022-08-26T03:02:42.148Z,9.30
2022-08-26T03:05:11.093Z,12.10
2022-08-26T03:07:39.287Z,12.70
2022-08-26T03:10:08.749Z,17.80
2022-08-26T03:12:36.757Z,15.30
2022-08-26T03:15:15.871Z,14.70
2022-08-26T03:17:47.761Z,14.00
2022-08-26T03:20:17.313Z,11.90
2022-08-26T03:22:45.492Z,9.80
2022-08-26T03:25:15.993Z,12.20
2022-08-26T03:27:43.421Z,13.10
2022-08-26T03:30:31.022Z,19.50
2022-08-26T03:32:58.409Z,12.60
2022-08-26T03:35:26.063Z,13.20
2022-08-26T03:37:53.761Z,20.20
2022-08-26T03:40:22.349Z,12.60
2022-08-26T03:42:50.588Z,11.70
2022-08-26T03:45:19.193Z,14.70
2022-08-26T03:47:47.751Z,16.70
2022-08-26T03:50:22.705Z,10.90
2022-08-26T03:52:52.651Z,16.00
2022-08-26T03:55:23.773Z,18.70
2022-08-26T03:57:52.638Z,19.40
2022-08-26T04:00:20.501Z,19.10
2022-08-26T04:02:50.728Z,14.30
2022-08-26T04:05:22.855Z,17.10
2022-08-26T04:07:51.878Z,14.40
2022-08-26T04:10:28.537Z,16.10
2022-08-26T04:12:59.825Z,12.20
2022-08-26T04:15:27.662Z,14.10
2022-08-26T04:17:55.909Z,13.40
2022-08-26T04:20:26.494Z,13.20
2022-08-26T04:22:53.922Z,18.30
2022-08-26T04:25:24.615Z,12.80
2022-08-26T04:27:52.481Z,16.30
2022-08-26T04:30:20.314Z,14.60
2022-08-26T04:32:49.792Z,17.00
2022-08-26T04:35:18.060Z,15.80
2022-08-26T04:37:45.878Z,14.20
2022-08-26T04:40:33.325Z,12.30
2022-08-26T04:43:15.970Z,11.00
2022-08-26T04:46:04.071Z,19.30
2022-08-26T04:49:11.154Z,14.10
2022-08-26T04:53:21.676Z,13.70
2022-08-26T04:56:12.664Z,16.10
2022-08-26T04:58:40.856Z,14.00
2022-08-26T05:01:08.830Z,12.30
2022-08-26T05:03:36.488Z,18.60
2022-08-26T05:06:05.271Z,12.40
2022-08-26T05:08:32.661Z,14.30
2022-08-26T05:11:07.564Z,13.10
2022-08-26T05:13:38.708Z,12.20
2022-08-26T05:16:11.675Z,13.50
2022-08-26T05:18:40.923Z,14.20
2022-08-26T05:21:24.256Z,17.00
2022-08-26T05:23:54.280Z,13.00
2022-08-26T05:26:24.594Z,13.90
2022-08-26T05:28:54.965Z,15.10
2022-08-26T05:31:27.828Z,14.30
2022-08-26T05:33:57.062Z,14.70
2022-08-26T05:36:27.754Z,12.50
2022-08-26T05:38:57.610Z,17.50
2022-08-26T05:41:34.171Z,17.30
2022-08-26T05:44:05.649Z,13.60
2022-08-26T05:46:34.417Z,14.20
2022-08-26T05:49:03.566Z,16.20
2022-08-26T05:51:31.011Z,14.70
2022-08-26T05:54:01.495Z,12.70
2022-08-26T05:56:30.800Z,9.60
2022-08-26T05:59:02.348Z,14.60
2022-08-26T06:01:35.461Z,10.60
2022-08-26T06:04:03.919Z,16.80
2022-08-26T06:06:34.645Z,18.00
2022-08-26T06:11:32.515Z,12.60
2022-08-26T06:14:04.403Z,15.90
2022-08-26T06:16:37.770Z,9.70
2022-08-26T06:19:10.917Z,15.10
2022-08-26T06:21:41.513Z,13.30
2022-08-26T06:24:31.315Z,19.10
2022-08-26T06:27:05.668Z,11.20
2022-08-26T06:29:36.156Z,10.90
2022-08-26T06:32:06.308Z,13.00
2022-08-26T06:34:33.713Z,12.50
2022-08-26T06:37:02.394Z,14.50
2022-08-26T06:39:31.385Z,11.70
2022-08-26T06:42:00.572Z,14.50
2022-08-26T06:44:28.079Z,12.40
2022-08-26T06:46:55.504Z,15.70
2022-08-26T06:49:27.222Z,14.20
2022-08-26T06:51:59.161Z,16.10
2022-08-26T06:54:29.870Z,10.20
2022-08-26T06:56:57.845Z,7.80
2022-08-26T06:59:25.611Z,14.10
2022-08-26T07:01:54.055Z,16.20
2022-08-26T07:04:22.331Z,18.40
2022-08-26T07:06:52.808Z,12.70
2022-08-26T07:09:23.141Z,10.90
2022-08-26T07:11:51.468Z,13.00
2022-08-26T07:14:21.236Z,11.80
2022-08-26T07:16:50.547Z,12.50
2022-08-26T07:19:31.210Z,14.10
2022-08-26T07:22:03.627Z,13.60
2022-08-26T07:24:35.367Z,20.30
2022-08-26T07:27:08.767Z,13.00
2022-08-26T07:29:38.555Z,10.30
2022-08-26T07:32:07.410Z,18.70
2022-08-26T07:34:35.036Z,24.10
2022-08-26T07:37:02.428Z,11.10
2022-08-26T07:39:31.506Z,16.20
2022-08-26T07:42:01.624Z,12.40
2022-08-26T07:44:37.059Z,14.20
2022-08-26T07:47:16.479Z,18.70
2022-08-26T07:49:56.085Z,12.50
2022-08-26T07:52:27.554Z,15.40
2022-08-26T07:57:26.284Z,12.90
2022-08-26T07:59:55.222Z,17.40
2022-08-26T08:02:24.952Z,14.00
2022-08-26T08:04:57.345Z,14.60
2022-08-26T08:07:44.620Z,12.60
2022-08-26T08:10:21.290Z,15.70
2022-08-26T08:12:50.139Z,18.30
2022-08-26T08:15:20.646Z,16.70
2022-08-26T08:17:47.978Z,12.60
2022-08-26T08:20:18.859Z,14.90
2022-08-26T08:22:47.193Z,16.20
2022-08-26T08:25:15.722Z,15.00
2022-08-26T08:27:48.134Z,12.90
2022-08-26T08:30:22.902Z,15.70
2022-08-26T08:32:52.282Z,15.50
2022-08-26T08:35:22.017Z,11.20
2022-08-26T08:37:53.767Z,16.20
2022-08-26T08:40:24.479Z,13.40
2022-08-26T08:43:15.327Z,11.90
2022-08-26T08:45:54.602Z,10.50
2022-08-26T08:48:28.020Z,13.90
2022-08-26T08:51:04.224Z,12.60
2022-08-26T08:53:44.269Z,15.10
2022-08-26T08:56:39.125Z,17.10
2022-08-26T08:59:32.450Z,19.30
2022-08-26T09:02:18.775Z,11.40
2022-08-26T09:05:15.324Z,17.30
2022-08-26T09:08:02.072Z,14.20
2022-08-26T09:10:43.604Z,15.20
2022-08-26T09:13:25.124Z,11.50
2022-08-26T09:16:08.449Z,9.70
2022-08-26T09:18:59.011Z,16.30
2022-08-26T09:21:26.701Z,18.60
2022-08-26T09:23:57.024Z,14.20
2022-08-26T09:26:29.230Z,11.40
2022-08-26T09:29:08.568Z,16.00
2022-08-26T09:31:41.152Z,15.60
2022-08-26T09:34:24.967Z,11.50
2022-08-26T09:36:58.239Z,18.60
2022-08-26T09:39:37.684Z,13.70
2022-08-26T09:42:12.523Z,18.40
2022-08-26T09:45:07.101Z,12.00
2022-08-26T09:47:43.357Z,13.80
2022-08-26T09:50:37.773Z,7.70
2022-08-26T09:53:12.889Z,13.70
2022-08-26T09:55:47.366Z,12.80
2022-08-26T09:58:35.291Z,10.00
2022-08-26T10:01:10.331Z,16.40
2022-08-26T10:03:39.117Z,22.00
2022-08-26T10:06:21.321Z,13.30
2022-08-26T10:09:08.885Z,15.90
2022-08-26T10:11:48.000Z,16.10
2022-08-26T10:14:32.511Z,12.00
2022-08-26T10:17:11.398Z,26.20
2022-08-26T10:19:56.838Z,17.80
2022-08-26T10:22:37.213Z,12.20
2022-08-26T10:25:09.351Z,17.70
2022-08-26T10:27:53.466Z,14.70
2022-08-26T10:30:30.822Z,21.10
2022-08-26T10:33:07.915Z,19.30
2022-08-26T10:35:46.367Z,14.30
2022-08-26T10:38:19.855Z,19.80
2022-08-26T10:40:52.929Z,13.70
2022-08-26T10:43:25.542Z,24.60
2022-08-26T10:45:59.458Z,17.20
2022-08-26T10:48:56.860Z,22.80
2022-08-26T10:51:35.943Z,19.30
2022-08-26T10:54:28.707Z,18.00
2022-08-26T10:57:11.842Z,18.20
2022-08-26T11:00:18.709Z,23.90
2022-08-26T11:02:54.563Z,11.20
2022-08-26T11:05:30.396Z,22.00
2022-08-26T11:08:58.084Z,10.30
2022-08-26T11:11:39.434Z,19.90
2022-08-26T11:14:29.104Z,16.50
2022-08-26T11:16:59.911Z,16.00
2022-08-26T11:20:07.426Z,24.50
2022-08-26T11:23:01.735Z,25.10
2022-08-26T11:26:35.759Z,26.50
2022-08-26T11:30:13.614Z,31.60
2022-08-26T11:33:00.872Z,39.30
2022-08-26T11:35:37.535Z,30.20
2022-08-26T11:38:29.093Z,40.00
2022-08-26T11:41:11.179Z,35.00
2022-08-26T11:43:43.569Z,38.30
2022-08-26T11:46:12.544Z,37.80
2022-08-26T11:48:43.202Z,38.30
2022-08-26T11:51:24.115Z,34.90
2022-08-26T11:53:51.563Z,34.50
2022-08-26T11:56:32.608Z,46.20
2022-08-26T11:59:07.361Z,55.10
2022-08-26T12:01:41.720Z,61.30
2022-08-26T12:04:17.598Z,72.10
2022-08-26T12:06:52.458Z,57.20
2022-08-26T12:09:36.689Z,37.20
2022-08-26T12:12:37.370Z,41.10
2022-08-26T12:15:21.392Z,45.30
2022-08-26T12:17:54.399Z,53.30
2022-08-26T12:20:53.416Z,54.80
2022-08-26T12:23:36.412Z,32.90
2022-08-26T12:26:12.139Z,45.80
2022-08-26T12:29:01.786Z,36.60
2022-08-26T12:31:47.418Z,40.40
2022-08-26T12:34:17.707Z,35.20
2022-08-26T12:39:37.276Z,41.50
2022-08-26T12:42:16.331Z,44.80
2022-08-26T12:44:53.343Z,38.40
2022-08-26T12:47:43.203Z,40.00
2022-08-26T12:50:20.559Z,33.40
2022-08-26T12:53:08.331Z,44.70
2022-08-26T12:55:52.369Z,50.50
2022-08-26T12:58:35.630Z,56.70
2022-08-26T13:01:08.483Z,39.70
2022-08-26T13:03:39.866Z,34.20
2022-08-26T13:06:30.818Z,34.20
2022-08-26T13:09:07.187Z,34.00
2022-08-26T13:11:55.388Z,35.00
2022-08-26T13:14:24.604Z,50.60
2022-08-26T13:16:53.008Z,37.70
2022-08-26T13:19:23.582Z,53.60
2022-08-26T13:21:54.326Z,64.10
2022-08-26T13:24:44.418Z,67.40
2022-08-26T13:27:14.493Z,43.40
2022-08-26T13:29:41.698Z,49.90
2022-08-26T13:32:09.185Z,62.60
2022-08-26T13:34:37.199Z,50.50
2022-08-26T13:37:04.969Z,69.80
2022-08-26T13:39:32.696Z,55.50
2022-08-26T13:41:59.933Z,61.50
2022-08-26T13:44:27.284Z,64.30
2022-08-26T13:46:54.426Z,60.80
2022-08-26T13:49:22.155Z,55.80
2022-08-26T13:51:49.282Z,47.60
2022-08-26T13:54:16.501Z,55.40
2022-08-26T13:56:43.918Z,59.60
2022-08-26T13:59:11.123Z,59.20
2022-08-26T14:01:39.859Z,49.70
2022-08-26T14:04:07.788Z,69.60
2022-08-26T14:06:35.166Z,64.40
2022-08-26T14:09:02.667Z,55.70
2022-08-26T14:11:29.951Z,60.40
2022-08-26T14:14:08.439Z,47.40
2022-08-26T14:16:37.679Z,47.40
2022-08-26T14:19:24.763Z,69.00
2022-08-26T14:21:52.411Z,74.80
2022-08-26T14:24:19.604Z,54.10
2022-08-26T14:26:48.025Z,60.90
2022-08-26T14:29:16.703Z,65.20
2022-08-26T14:31:44.956Z,73.10
2022-08-26T14:34:12.898Z,67.00
2022-08-26T14:36:40.031Z,76.90
2022-08-26T14:39:11.180Z,70.40
2022-08-26T14:41:54.443Z,74.30
2022-08-26T14:44:29.047Z,62.40
2022-08-26T14:47:02.299Z,65.60
2022-08-26T14:49:30.906Z,63.20
2022-08-26T14:51:58.532Z,61.90
2022-08-26T14:54:25.882Z,80.20
2022-08-26T14:56:58.040Z,76.80
2022-08-26T14:59:29.290Z,79.70
2022-08-26T15:01:57.649Z,65.30
2022-08-26T15:04:27.668Z,76.00
2022-08-26T15:07:01.329Z,62.70
2022-08-26T15:09:40.774Z,73.40
2022-08-26T15:12:12.546Z,70.30
2022-08-26T15:14:42.515Z,72.00
2022-08-26T15:17:17.059Z,80.00
2022-08-26T15:19:49.836Z,70.30
2022-08-26T15:22:29.816Z,68.00
2022-08-26T15:25:14.844Z,58.00
2022-08-26T15:27:50.285Z,68.90
2022-08-26T15:30:19.808Z,72.00
2022-08-26T15:32:49.520Z,72.70
2022-08-26T15:35:18.674Z,67.10
2022-08-26T15:37:45.881Z,58.20
2022-08-26T15:40:13.341Z,65.90
2022-08-26T15:42:40.643Z,69.40
2022-08-26T15:45:08.188Z,66.40
2022-08-26T15:47:35.548Z,83.40
2022-08-26T15:50:25.008Z,79.50
2022-08-26T15:52:52.330Z,64.90
2022-08-26T15:55:20.244Z,60.90
2022-08-26T15:57:51.136Z,74.30
2022-08-26T16:00:20.223Z,83.60
2022-08-26T16:02:47.977Z,77.50
2022-08-26T16:05:15.419Z,79.10
2022-08-26T16:07:42.727Z,60.80
2022-08-26T16:10:10.403Z,70.40
2022-08-26T16:12:38.024Z,63.90
2022-08-26T16:15:06.761Z,63.40
2022-08-26T16:17:34.107Z,60.30
2022-08-26T16:20:02.139Z,63.20
2022-08-26T16:22:30.951Z,67.10
2022-08-26T16:25:00.700Z,65.50
2022-08-26T16:27:47.987Z,66.50
2022-08-26T16:30:41.997Z,61.80
2022-08-26T16:33:36.834Z,78.30
2022-08-26T16:36:11.034Z,68.90
2022-08-26T16:38:41.869Z,70.10
2022-08-26T16:41:09.842Z,76.30
2022-08-26T16:43:37.463Z,72.10
2022-08-26T16:46:17.378Z,75.80
2022-08-26T16:48:45.470Z,71.00
2022-08-26T16:51:15.846Z,60.50
2022-08-26T16:56:20.450Z,62.90
2022-08-26T16:58:48.110Z,76.00
2022-08-26T17:01:16.372Z,70.60
2022-08-26T17:03:43.836Z,76.30
2022-08-26T17:06:11.769Z,67.60
2022-08-26T17:08:41.190Z,64.00
2022-08-26T17:11:09.684Z,68.80
2022-08-26T17:13:44.239Z,68.90
2022-08-26T17:16:14.625Z,83.00
2022-08-26T17:18:41.897Z,73.70
2022-08-26T17:21:12.583Z,67.90
2022-08-26T17:23:41.586Z,74.50
2022-08-26T17:26:11.341Z,73.30
2022-08-26T17:28:39.555Z,77.30
2022-08-26T17:31:10.462Z,66.70
2022-08-26T17:33:39.477Z,67.60
2022-08-26T17:36:08.887Z,63.70
2022-08-26T17:38:38.132Z,60.80
2022-08-26T17:41:13.912Z,59.00
2022-08-26T17:43:41.728Z,60.10
2022-08-26T17:46:11.126Z,58.30
2022-08-26T17:48:40.460Z,57.90
2022-08-26T17:51:16.453Z,70.10
2022-08-26T17:53:44.530Z,57.70
2022-08-26T17:56:15.100Z,64.90
2022-08-26T17:58:50.957Z,56.70
2022-08-26T18:01:21.671Z,71.40
2022-08-26T18:04:00.479Z,72.90
2022-08-26T18:06:29.997Z,58.60
2022-08-26T18:08:57.971Z,54.40
2022-08-26T18:11:26.517Z,56.10
2022-08-26T18:13:53.865Z,61.20
2022-08-26T18:16:21.163Z,65.30
2022-08-26T18:18:52.810Z,57.60
2022-08-26T18:21:25.775Z,70.90
2022-08-26T18:23:54.041Z,56.60
2022-08-26T18:26:25.899Z,61.00
2022-08-26T18:28:53.407Z,59.60
2022-08-26T18:31:21.298Z,63.40
2022-08-26T18:33:48.645Z,59.40
2022-08-26T18:36:28.997Z,59.00
2022-08-26T18:38:57.325Z,71.00
2022-08-26T18:41:34.357Z,78.50
2022-08-26T18:44:01.537Z,73.80
2022-08-26T18:46:28.924Z,53.80
2022-08-26T18:48:57.160Z,69.30
2022-08-26T18:51:29.134Z,69.50
2022-08-26T18:53:57.217Z,66.40
2022-08-26T18:56:25.606Z,68.60
2022-08-26T18:58:54.931Z,66.00
2022-08-26T19:01:26.629Z,54.70
2022-08-26T19:04:01.868Z,69.20
2022-08-26T19:06:32.425Z,64.90
2022-08-26T19:09:00.384Z,62.80
2022-08-26T19:11:32.476Z,63.80
2022-08-26T19:14:09.880Z,60.10
2022-08-26T19:16:38.453Z,59.90
2022-08-26T19:19:06.294Z,67.90
2022-08-26T19:21:35.865Z,63.70
2022-08-26T19:24:08.881Z,64.50
2022-08-26T19:26:39.156Z,64.20
2022-08-26T19:29:12.690Z,61.10
2022-08-26T19:31:41.791Z,65.10
2022-08-26T19:34:18.333Z,69.90
2022-08-26T19:36:52.819Z,76.90
2022-08-26T19:39:20.788Z,73.50
2022-08-26T19:41:48.450Z,78.70
2022-08-26T19:44:38.585Z,78.00
2022-08-26T19:47:08.736Z,61.50
2022-08-26T19:49:37.006Z,65.30
2022-08-26T19:52:08.527Z,58.20
2022-08-26T19:54:36.498Z,70.80
2022-08-26T19:57:04.654Z,66.50
2022-08-26T19:59:35.701Z,55.70
2022-08-26T20:02:14.339Z,66.00
2022-08-26T20:04:45.326Z,67.20
2022-08-26T20:09:47.762Z,52.20
2022-08-26T20:12:16.951Z,60.80
2022-08-26T20:14:45.042Z,57.10
2022-08-26T20:17:12.796Z,81.70
2022-08-26T20:19:58.843Z,73.70
2022-08-26T20:22:26.585Z,67.60
2022-08-26T20:24:54.625Z,56.30
2022-08-26T20:27:27.244Z,60.10
2022-08-26T20:30:08.730Z,55.60
2022-08-26T20:32:40.433Z,58.00
2022-08-26T20:35:12.185Z,54.10
2022-08-26T20:37:40.480Z,61.60
2022-08-26T20:40:10.828Z,60.80
2022-08-26T20:42:38.301Z,57.20
2022-08-26T20:45:10.254Z,65.60
2022-08-26T20:47:37.927Z,67.10
2022-08-26T20:50:05.727Z,73.80
2022-08-26T20:52:33.022Z,68.40
2022-08-26T20:55:00.390Z,67.20
2022-08-26T20:57:28.148Z,64.50
2022-08-26T20:59:55.842Z,64.20
2022-08-26T21:02:23.782Z,55.20
2022-08-26T21:04:53.206Z,59.30
2022-08-26T21:07:20.502Z,54.40
2022-08-26T21:09:49.650Z,54.60
2022-08-26T21:12:18.999Z,55.30
2022-08-26T21:14:49.509Z,56.10
2022-08-26T21:19:44.449Z,66.20
2022-08-26T21:22:11.846Z,65.60
2022-08-26T21:24:39.252Z,59.90
2022-08-26T21:27:06.720Z,62.50
2022-08-26T21:29:35.686Z,57.80
2022-08-26T21:32:03.784Z,61.70
2022-08-26T21:34:31.180Z,54.80
2022-08-26T21:36:58.530Z,48.90
2022-08-26T21:39:25.921Z,52.20
2022-08-26T21:41:53.816Z,48.90
2022-08-26T21:44:21.569Z,58.90
2022-08-26T21:46:51.047Z,46.20
2022-08-26T21:49:18.309Z,46.80
2022-08-26T21:51:48.077Z,54.00
2022-08-26T21:54:17.632Z,48.00
2022-08-26T21:56:46.692Z,48.30
2022-08-26T21:59:18.375Z,51.20
2022-08-26T22:01:47.848Z,48.70
2022-08-26T22:04:16.427Z,58.40
2022-08-26T22:06:47.668Z,52.50
2022-08-26T22:09:19.973Z,63.90
2022-08-26T22:11:47.580Z,57.10
2022-08-26T22:14:16.678Z,41.70
2022-08-26T22:16:50.170Z,58.90
2022-08-26T22:19:20.425Z,47.40
2022-08-26T22:21:53.304Z,52.80
2022-08-26T22:24:23.414Z,54.30
2022-08-26T22:26:51.590Z,44.70
2022-08-26T22:29:19.173Z,44.40
2022-08-26T22:31:46.565Z,54.80
2022-08-26T22:34:16.840Z,56.80
2022-08-26T22:36:47.534Z,62.90
2022-08-26T22:39:19.568Z,53.40
2022-08-26T22:41:48.070Z,60.40
2022-08-26T22:44:17.740Z,50.80
2022-08-26T22:46:45.724Z,45.90
2022-08-26T22:49:15.901Z,51.60
2022-08-26T22:51:44.999Z,47.90
2022-08-26T22:54:13.894Z,44.90
2022-08-26T22:56:41.513Z,51.10
2022-08-26T22:59:11.335Z,59.30
2022-08-26T23:01:41.885Z,49.10
2022-08-26T23:04:10.571Z,47.80
2022-08-26T23:06:40.596Z,59.80
2022-08-26T23:09:09.162Z,65.20
2022-08-26T23:11:39.424Z,48.40
2022-08-26T23:14:10.749Z,50.40
2022-08-26T23:16:41.180Z,69.50
2022-08-26T23:19:10.883Z,67.20
2022-08-26T23:21:38.899Z,58.30
2022-08-26T23:24:07.759Z,64.00
2022-08-26T23:26:35.781Z,53.10
2022-08-26T23:29:05.826Z,48.20
2022-08-26T23:31:33.650Z,48.40
2022-08-26T23:34:19.752Z,48.10
2022-08-26T23:36:47.906Z,55.40
2022-08-26T23:39:15.496Z,63.90
2022-08-26T23:41:42.846Z,59.10
2022-08-26T23:44:11.868Z,54.60
2022-08-26T23:46:39.155Z,47.00
2022-08-26T23:49:06.532Z,47.40
2022-08-26T23:51:52.493Z,61.10
2022-08-26T23:54:20.160Z,58.30
2022-08-26T23:56:47.894Z,44.60
2022-08-26T23:59:15.155Z,48.80
